KFFO

Mon, Dec 10, 2018 - 06:22 EST
Clear, Mist
TEMP
14°F
FEELS LIKE
14°F
HUMIDITY
92%
DEW POINT
12°F
WIND  
0
MPH
BAROMETER
30.23 IN

METAR KFFO 101122Z 00000KT 4SM BR CLR M10/M11 A3023 RMK AO2A SLP254

ADDS     |     NWS

MoDaWx     |     KI19     |     KFFO
Free Web Hosting